Time;durP1;ratioP1;P1;durP2;ratioP2;P2;SDS_P1;SDS_P2;PMS_P1;PMS_P2;Temp;Humidity;BMP_temperature;BMP_pressure;BME280_temperature;BME280_humidity;BME280_pressure;Samples;Min_cycle;Max_cycle;Signal;HPM_P1;HPM_P2
2023/03/29 00:01:40;;;;;;;13.30;7.68;;;;;;;5.23;100.00;-18168.63;4950219;28;20050;-81
2023/03/29 00:04:06;;;;;;;12.80;8.02;;;;;;;5.22;100.00;-18168.50;4951014;28;20192;-81
2023/03/29 00:06:32;;;;;;;14.00;9.00;;;;;;;5.22;100.00;-18168.50;4948949;28;20057;-82
2023/03/29 00:08:58;;;;;;;13.45;8.20;;;;;;;5.23;100.00;-18168.63;4952548;28;20079;-83
2023/03/29 00:11:26;;;;;;;13.07;8.68;;;;;;;5.23;100.00;-18168.63;4953292;28;20130;-82
2023/03/29 00:13:51;;;;;;;12.70;8.18;;;;;;;5.18;100.00;-18167.41;4953942;28;20039;-82
2023/03/29 00:16:17;;;;;;;12.77;8.48;;;;;;;5.17;100.00;-18167.25;4946001;28;20039;-82
2023/03/29 00:18:44;;;;;;;16.50;8.88;;;;;;;5.17;100.00;-18167.25;4960018;28;20043;-82
2023/03/29 00:21:09;;;;;;;15.13;8.35;;;;;;;5.14;100.00;-18166.28;4949869;28;20046;-82
2023/03/29 00:23:35;;;;;;;10.95;7.63;;;;;;;5.10;100.00;-18165.31;4948753;28;20051;-82
2023/03/29 00:26:01;;;;;;;12.50;7.47;;;;;;;5.12;100.00;-18165.75;4949809;28;20105;-81
2023/03/29 00:28:26;;;;;;;14.02;9.13;;;;;;;5.14;100.00;-18166.44;4951843;28;20042;-82
2023/03/29 00:30:51;;;;;;;13.20;8.77;;;;;;;5.12;100.00;-18165.75;4952827;28;20105;-82
2023/03/29 00:33:19;;;;;;;14.95;8.43;;;;;;;5.10;100.00;-18165.31;4947974;28;20039;-82
2023/03/29 00:35:47;;;;;;;12.27;8.25;;;;;;;5.11;100.00;-18165.59;4944732;28;20102;-84
2023/03/29 00:38:13;;;;;;;14.85;8.77;;;;;;;5.13;100.00;-18166.16;4953530;28;20051;-81
2023/03/29 00:40:45;;;;;;;16.27;9.15;;;;;;;5.12;100.00;-18165.88;4945773;28;20062;-81
2023/03/29 00:43:12;;;;;;;13.00;8.85;;;;;;;5.15;100.00;-18166.72;4950964;28;20642;-86
2023/03/29 00:45:37;;;;;;;15.25;8.63;;;;;;;5.19;100.00;-18167.81;4955302;28;20050;-81
2023/03/29 00:48:09;;;;;;;15.10;9.57;;;;;;;5.23;100.00;-18168.63;4946251;28;20039;-83
2023/03/29 00:50:42;;;;;;;16.30;9.70;;;;;;;5.24;100.00;-18169.06;4950726;28;20102;-83
2023/03/29 00:53:15;;;;;;;14.52;9.60;;;;;;;5.18;100.00;-18167.41;4949279;28;20070;-84
2023/03/29 00:56:12;;;;;;;14.43;9.07;;;;;;;5.23;100.00;-18168.63;4963683;28;20411;-84
2023/03/29 00:59:22;;;;;;;15.40;9.25;;;;;;;5.27;100.00;-18169.75;4947791;28;20051;-84
2023/03/29 01:01:53;;;;;;;16.63;9.45;;;;;;;5.24;100.00;-18168.91;4934326;28;20043;-84
2023/03/29 01:04:28;;;;;;;13.48;8.95;;;;;;;5.28;100.00;-18170.03;4958461;28;20049;-82
2023/03/29 01:07:12;;;;;;;14.30;8.73;;;;;;;5.22;100.00;-18168.38;4949844;28;20658;-83
2023/03/29 01:09:43;;;;;;;15.23;8.82;;;;;;;5.20;100.00;-18168.09;4964239;28;20051;-84
2023/03/29 01:12:16;;;;;;;15.93;9.68;;;;;;;5.26;100.00;-18169.47;4954923;28;20040;-81
2023/03/29 01:14:55;;;;;;;14.93;10.38;;;;;;;5.24;100.00;-18169.06;4961834;28;20069;-82
2023/03/29 01:17:24;;;;;;;14.60;9.75;;;;;;;5.26;100.00;-18169.47;4944303;28;20200;-82
2023/03/29 01:19:59;;;;;;;16.08;9.50;;;;;;;5.29;100.00;-18170.28;4953411;28;20043;-79
2023/03/29 01:22:27;;;;;;;13.13;8.45;;;;;;;5.27;100.00;-18169.75;4951669;28;20035;-81
2023/03/29 01:25:06;;;;;;;17.17;8.13;;;;;;;5.24;100.00;-18168.91;4951788;28;20109;-81
2023/03/29 01:27:50;;;;;;;17.83;9.85;;;;;;;5.28;100.00;-18170.16;4951917;28;20144;-82
2023/03/29 01:30:25;;;;;;;16.45;9.60;;;;;;;5.22;100.00;-18168.38;4951524;28;20092;-82
2023/03/29 01:33:04;;;;;;;16.13;9.07;;;;;;;5.22;100.00;-18168.38;4952217;28;20054;-79
2023/03/29 01:35:44;;;;;;;;;;;;;;;5.22;100.00;-18168.50;4950783;28;20039;-80
2023/03/29 01:38:22;;;;;;;15.05;8.48;;;;;;;5.10;100.00;-18165.19;4948411;28;20010;-79
2023/03/29 01:40:47;;;;;;;15.15;8.68;;;;;;;5.11;100.00;-18165.47;4960129;28;20039;-80
2023/03/29 01:43:25;;;;;;;12.63;8.35;;;;;;;5.09;100.00;-18165.06;4950727;28;20062;-82
2023/03/29 01:46:07;;;;;;;11.45;7.78;;;;;;;5.13;100.00;-18166.16;4953166;28;20053;-82
2023/03/29 01:48:48;;;;;;;14.27;9.23;;;;;;;5.16;100.00;-18166.97;4949892;28;20503;-81
2023/03/29 01:51:33;;;;;;;13.77;9.15;;;;;;;5.16;100.00;-18166.97;4950848;28;20066;-83
2023/03/29 01:54:04;;;;;;;13.32;7.65;;;;;;;5.14;100.00;-18166.44;4951335;28;20047;-81
2023/03/29 01:56:35;;;;;;;14.35;9.30;;;;;;;5.16;100.00;-18166.97;4963152;28;20050;-81
2023/03/29 01:59:05;;;;;;;12.02;8.27;;;;;;;5.25;100.00;-18169.19;4950187;28;20059;-83
2023/03/29 02:01:39;;;;;;;13.40;8.05;;;;;;;5.26;100.00;-18169.59;4948456;28;20428;-82
2023/03/29 02:04:11;;;;;;;12.85;8.32;;;;;;;5.28;100.00;-18170.03;4949831;28;20051;-81
2023/03/29 02:06:40;;;;;;;13.80;8.45;;;;;;;5.30;100.00;-18170.72;4967542;28;20039;-82
2023/03/29 02:09:06;;;;;;;13.23;8.18;;;;;;;5.29;100.00;-18170.28;4945620;28;20164;-82
2023/03/29 02:11:33;;;;;;;12.13;8.63;;;;;;;5.28;100.00;-18170.16;4954656;28;20046;-82
2023/03/29 02:13:59;;;;;;;13.30;9.00;;;;;;;5.31;100.00;-18170.84;4965483;28;20047;-82
2023/03/29 02:16:25;;;;;;;14.05;9.00;;;;;;;5.31;100.00;-18171.00;4946350;28;20507;-82
2023/03/29 02:18:55;;;;;;;11.85;8.95;;;;;;;5.30;100.00;-18170.56;4959630;28;20051;-82
2023/03/29 02:21:47;;;;;;;13.52;8.70;;;;;;;5.35;100.00;-18171.94;4943240;28;20103;-80
2023/03/29 02:24:15;;;;;;;14.45;7.50;;;;;;;5.40;100.00;-18173.34;4952179;28;20154;-82
2023/03/29 02:26:41;;;;;;;11.38;8.68;;;;;;;5.40;100.00;-18173.34;4966119;28;20069;-81
2023/03/29 02:29:06;;;;;;;14.55;8.07;;;;;;;5.36;100.00;-18172.22;4946216;28;20515;-81
2023/03/29 02:31:52;;;;;;;13.80;8.00;;;;;;;5.40;100.00;-18173.47;4949129;28;20053;-82
2023/03/29 02:34:27;;;;;;;12.63;8.85;;;;;;;5.41;100.00;-18173.63;4953890;28;20066;-82
2023/03/29 02:36:57;;;;;;;13.65;8.18;;;;;;;5.38;100.00;-18172.78;4951596;28;20062;-82
2023/03/29 02:39:25;;;;;;;12.65;8.20;;;;;;;5.43;100.00;-18174.16;4943511;28;20097;-81
2023/03/29 02:41:52;;;;;;;13.85;8.40;;;;;;;5.42;100.00;-18174.03;4955015;28;20423;-81
2023/03/29 02:44:21;;;;;;;12.25;8.23;;;;;;;5.44;100.00;-18174.44;4952678;28;20034;-80
2023/03/29 02:46:49;;;;;;;14.20;8.32;;;;;;;5.49;100.00;-18175.81;4953645;28;20427;-82
2023/03/29 02:49:15;;;;;;;12.80;8.65;;;;;;;5.49;100.00;-18175.81;4962527;28;20043;-81
2023/03/29 02:51:41;;;;;;;13.63;8.63;;;;;;;5.46;100.00;-18175.00;4949807;28;20051;-82
2023/03/29 02:54:12;;;;;;;14.43;8.50;;;;;;;5.44;100.00;-18174.44;4948039;28;20043;-82
2023/03/29 02:56:48;;;;;;;14.82;8.85;;;;;;;5.51;100.00;-18176.22;4972925;28;20050;-82
2023/03/29 02:59:15;;;;;;;11.98;7.15;;;;;;;5.44;100.00;-18174.44;4952509;28;20034;-82
2023/03/29 03:01:44;;;;;;;11.98;8.10;;;;;;;5.53;100.00;-18176.78;4948664;28;20050;-83
2023/03/29 03:04:11;;;;;;;12.98;8.25;;;;;;;5.64;100.00;-18179.97;4953022;28;20043;-82
2023/03/29 03:06:37;;;;;;;13.93;8.18;;;;;;;5.50;100.00;-18176.09;4964577;28;20043;-82
2023/03/29 03:09:04;;;;;;;13.43;7.90;;;;;;;5.49;100.00;-18175.69;4945893;28;20101;-82
2023/03/29 03:11:31;;;;;;;13.90;8.07;;;;;;;5.46;100.00;-18174.84;4953071;28;20107;-82
2023/03/29 03:13:56;;;;;;;10.88;7.03;;;;;;;5.46;100.00;-18174.84;4950781;28;20050;-82
2023/03/29 03:16:22;;;;;;;12.48;8.10;;;;;;;5.47;100.00;-18175.25;4948861;28;20070;-82
2023/03/29 03:18:50;;;;;;;11.90;6.60;;;;;;;5.47;100.00;-18175.13;4950961;28;20051;-81
2023/03/29 03:21:16;;;;;;;14.38;8.52;;;;;;;5.46;100.00;-18174.84;4948412;28;20852;-81
2023/03/29 03:23:42;;;;;;;12.23;8.15;;;;;;;5.50;100.00;-18176.09;4949720;28;20725;-82
2023/03/29 03:26:07;;;;;;;13.05;8.15;;;;;;;5.48;100.00;-18175.53;4954087;28;20133;-82
2023/03/29 03:28:34;;;;;;;11.25;8.55;;;;;;;5.47;100.00;-18175.25;4951877;28;20057;-82
2023/03/29 03:30:59;;;;;;;12.02;7.63;;;;;;;5.53;100.00;-18176.78;4947777;28;20058;-82
2023/03/29 03:33:26;;;;;;;11.93;8.30;;;;;;;5.55;100.00;-18177.47;4953524;28;20043;-82
2023/03/29 03:35:55;;;;;;;14.65;8.63;;;;;;;5.60;100.00;-18178.84;4949394;28;20062;-82
2023/03/29 03:38:21;;;;;;;12.20;8.80;;;;;;;5.62;100.00;-18179.25;4951967;28;20513;-82
2023/03/29 03:40:54;;;;;;;14.25;8.15;;;;;;;5.63;100.00;-18179.69;4953710;28;20549;-81
2023/03/29 03:43:20;;;;;;;12.70;7.93;;;;;;;5.62;100.00;-18179.25;4953270;28;20051;-82
2023/03/29 03:45:45;;;;;;;12.30;8.43;;;;;;;5.68;100.00;-18180.78;4955563;28;20051;-79
2023/03/29 03:48:11;;;;;;;17.23;9.60;;;;;;;5.71;100.00;-18181.75;4963952;28;20051;-82
2023/03/29 03:50:37;;;;;;;13.77;7.80;;;;;;;5.65;100.00;-18180.09;4950890;28;20062;-80
2023/03/29 03:53:02;;;;;;;17.25;9.82;;;;;;;5.68;100.00;-18180.78;4957735;28;20039;-83
2023/03/29 03:55:28;;;;;;;14.60;9.27;;;;;;;5.69;100.00;-18181.19;4966833;28;20369;-82
2023/03/29 03:57:54;;;;;;;14.32;7.95;;;;;;;5.58;100.00;-18178.16;4953309;28;20053;-80
2023/03/29 04:00:20;;;;;;;13.93;8.35;;;;;;;5.58;100.00;-18178.31;4967407;28;20129;-83
2023/03/29 04:02:47;;;;;;;16.40;9.52;;;;;;;5.62;100.00;-18179.41;4951801;28;20074;-82
2023/03/29 04:05:12;;;;;;;16.30;10.00;;;;;;;5.60;100.00;-18178.84;4952957;28;20057;-82
2023/03/29 04:07:39;;;;;;;17.95;9.27;;;;;;;5.61;100.00;-18179.00;4951495;28;20816;-80
2023/03/29 04:10:05;;;;;;;16.10;10.00;;;;;;;5.56;100.00;-18177.63;4951921;28;20039;-82
2023/03/29 04:12:30;;;;;;;14.77;9.60;;;;;;;5.54;100.00;-18177.19;4953339;28;20047;-83
2023/03/29 04:14:56;;;;;;;16.17;9.13;;;;;;;5.62;100.00;-18179.25;4957604;28;20071;-82
2023/03/29 04:17:21;;;;;;;17.17;9.15;;;;;;;5.68;100.00;-18180.78;4960979;28;20126;-82
2023/03/29 04:19:47;;;;;;;17.10;11.05;;;;;;;5.78;100.00;-18183.53;4952889;28;20130;-83
2023/03/29 04:22:12;;;;;;;18.58;9.93;;;;;;;5.78;100.00;-18183.53;4964175;28;20065;-82
2023/03/29 04:24:37;;;;;;;14.00;10.13;;;;;;;5.72;100.00;-18182.03;4960057;28;20051;-83
2023/03/29 04:27:03;;;;;;;19.00;10.27;;;;;;;5.73;100.00;-18182.16;4952417;28;20122;-82
2023/03/29 04:29:28;;;;;;;18.45;10.63;;;;;;;5.77;100.00;-18183.41;4952163;28;20134;-81
2023/03/29 04:31:55;;;;;;;15.50;10.25;;;;;;;5.75;100.00;-18182.84;4966410;28;20047;-82
2023/03/29 04:34:20;;;;;;;16.00;10.88;;;;;;;5.72;100.00;-18181.88;4945116;28;20047;-82
2023/03/29 04:36:49;;;;;;;17.55;11.20;;;;;;;5.69;100.00;-18181.06;4951261;28;20162;-83
2023/03/29 04:39:16;;;;;;;17.92;11.52;;;;;;;5.75;100.00;-18182.72;4951704;28;20038;-83
2023/03/29 04:41:42;;;;;;;17.65;11.95;;;;;;;5.75;100.00;-18182.84;4948412;28;20115;-83
2023/03/29 04:44:08;;;;;;;19.25;11.20;;;;;;;5.76;100.00;-18183.00;4950356;28;20043;-83
2023/03/29 04:46:33;;;;;;;16.75;9.93;;;;;;;5.68;100.00;-18180.91;4949138;28;20053;-83
2023/03/29 04:48:58;;;;;;;21.13;12.35;;;;;;;5.69;100.00;-18181.19;4951459;28;20081;-83
2023/03/29 04:51:24;;;;;;;15.73;11.82;;;;;;;5.66;100.00;-18180.50;4948529;28;20107;-83
2023/03/29 04:53:50;;;;;;;16.40;10.88;;;;;;;5.68;100.00;-18180.78;4950036;28;20043;-83
2023/03/29 04:56:16;;;;;;;20.20;13.10;;;;;;;5.71;100.00;-18181.75;4953088;28;20043;-82
2023/03/29 04:58:43;;;;;;;20.25;13.02;;;;;;;5.71;100.00;-18181.75;4946564;28;20779;-82
2023/03/29 05:01:08;;;;;;;19.77;12.00;;;;;;;5.66;100.00;-18180.50;4950109;28;20046;-82
2023/03/29 05:03:34;;;;;;;18.48;13.65;;;;;;;5.69;100.00;-18181.06;4965040;28;20051;-82
2023/03/29 05:06:07;;;;;;;21.52;13.15;;;;;;;5.67;100.00;-18180.66;4963197;28;20062;-82
2023/03/29 05:08:34;;;;;;;21.25;13.38;;;;;;;5.73;100.00;-18182.16;4945914;28;20071;-82
2023/03/29 05:11:00;;;;;;;17.95;12.68;;;;;;;5.75;100.00;-18182.84;4954406;28;20644;-82
2023/03/29 05:13:26;;;;;;;21.50;12.43;;;;;;;5.79;100.00;-18183.97;4943686;28;20047;-82
2023/03/29 05:15:51;;;;;;;20.55;11.52;;;;;;;5.77;100.00;-18183.25;4949914;28;20046;-82
2023/03/29 05:18:16;;;;;;;18.70;11.73;;;;;;;5.80;100.00;-18184.09;4947627;28;20562;-82
2023/03/29 05:20:42;;;;;;;20.10;12.02;;;;;;;5.79;100.00;-18183.81;4948096;28;20043;-82
2023/03/29 05:23:07;;;;;;;20.02;13.02;;;;;;;5.85;100.00;-18185.47;4957862;28;20086;-82
2023/03/29 05:25:33;;;;;;;17.63;11.68;;;;;;;5.86;100.00;-18185.75;4950985;28;20106;-82
2023/03/29 05:27:58;;;;;;;25.08;14.73;;;;;;;5.89;100.00;-18186.72;4957178;28;20043;-85
2023/03/29 05:30:24;;;;;;;25.60;13.80;;;;;;;5.91;100.00;-18187.00;4955025;28;20101;-82
2023/03/29 05:32:49;;;;;;;22.05;14.50;;;;;;;5.83;100.00;-18185.06;4953377;28;20051;-82
2023/03/29 05:35:14;;;;;;;22.77;15.23;;;;;;;5.82;100.00;-18184.66;4955748;28;20057;-84
2023/03/29 05:37:40;;;;;;;22.27;13.25;;;;;;;5.86;100.00;-18185.88;4953633;28;20050;-82
2023/03/29 05:40:08;;;;;;;19.25;11.38;;;;;;;5.87;100.00;-18186.03;4963844;28;20479;-82
2023/03/29 05:42:35;;;;;;;20.63;12.40;;;;;;;5.90;100.00;-18186.84;4951137;28;20058;-82
2023/03/29 05:45:01;;;;;;;20.67;12.05;;;;;;;5.93;100.00;-18187.53;4948895;28;20031;-85
2023/03/29 05:47:27;;;;;;;21.17;12.80;;;;;;;5.92;100.00;-18187.25;4948197;28;20573;-82
2023/03/29 05:49:52;;;;;;;16.95;11.85;;;;;;;5.89;100.00;-18186.56;4952278;28;20055;-82
2023/03/29 05:52:18;;;;;;;20.45;12.48;;;;;;;5.91;100.00;-18187.00;4947810;28;20043;-84
2023/03/29 05:54:44;;;;;;;19.13;12.90;;;;;;;5.98;100.00;-18188.94;4952262;28;20043;-84
2023/03/29 05:57:09;;;;;;;16.38;11.40;;;;;;;6.01;100.00;-18189.75;4951097;28;20059;-85
2023/03/29 05:59:34;;;;;;;19.67;11.70;;;;;;;6.03;100.00;-18190.44;4952521;28;20055;-87
2023/03/29 06:02:02;;;;;;;19.67;10.90;;;;;;;6.02;100.00;-18190.03;4951534;28;20108;-82
2023/03/29 06:04:27;;;;;;;15.40;10.63;;;;;;;6.08;100.00;-18191.81;4946986;28;20259;-82
2023/03/29 06:06:53;;;;;;;19.13;11.38;;;;;;;6.10;100.00;-18192.25;4969499;28;20050;-83
2023/03/29 06:09:19;;;;;;;15.40;9.82;;;;;;;6.15;100.00;-18193.63;4950341;28;20094;-82
2023/03/29 06:11:45;;;;;;;17.40;10.93;;;;;;;6.24;100.00;-18196.09;4950040;28;20474;-84
2023/03/29 06:14:12;;;;;;;20.42;11.18;;;;;;;6.33;100.00;-18198.59;4958892;28;20494;-81
2023/03/29 06:16:37;;;;;;;16.33;10.38;;;;;;;6.21;100.00;-18195.13;4954857;28;20122;-82
2023/03/29 06:19:04;;;;;;;12.52;9.70;;;;;;;6.26;100.00;-18196.66;4952999;28;20450;-86
2023/03/29 06:21:30;;;;;;;15.35;9.63;;;;;;;6.36;100.00;-18199.13;4952571;28;20062;-81
2023/03/29 06:23:55;;;;;;;14.82;8.80;;;;;;;6.31;100.00;-18198.03;4957268;28;20531;-81
2023/03/29 06:26:21;;;;;;;17.48;8.35;;;;;;;6.42;100.00;-18200.78;4954375;28;20050;-80
2023/03/29 06:28:47;;;;;;;14.82;7.70;;;;;;;6.47;100.00;-18202.31;4953406;28;20158;-84
2023/03/29 06:31:13;;;;;;;16.88;9.57;;;;;;;6.43;100.00;-18201.06;4955315;28;20078;-85
2023/03/29 06:33:39;;;;;;;16.23;9.18;;;;;;;6.45;100.00;-18201.75;4954509;28;20153;-82
2023/03/29 06:36:04;;;;;;;14.68;9.27;;;;;;;6.47;100.00;-18202.31;4957170;28;20064;-81
2023/03/29 06:38:30;;;;;;;13.48;9.20;;;;;;;6.49;100.00;-18202.72;4952408;28;20430;-81
2023/03/29 06:41:07;;;;;;;15.98;9.70;;;;;;;6.46;100.00;-18202.03;4952157;28;20454;-81
2023/03/29 06:43:33;;;;;;;16.38;8.70;;;;;;;6.44;100.00;-18201.47;4950462;28;20417;-82
2023/03/29 06:45:59;;;;;;;16.80;8.18;;;;;;;6.57;100.00;-18204.94;4958125;28;20533;-83
2023/03/29 06:48:25;;;;;;;14.70;7.40;;;;;;;6.53;100.00;-18203.97;4951771;28;20051;-84
2023/03/29 06:50:51;;;;;;;11.13;7.53;;;;;;;6.53;100.00;-18203.97;4950661;28;20047;-83
2023/03/29 06:53:16;;;;;;;11.38;7.85;;;;;;;6.58;100.00;-18205.06;4964801;28;20776;-81
2023/03/29 06:55:42;;;;;;;14.32;7.75;;;;;;;6.51;100.00;-18203.28;4955933;28;20047;-82
2023/03/29 06:58:08;;;;;;;14.73;7.95;;;;;;;6.58;100.00;-18205.06;4956569;28;20034;-84
2023/03/29 07:00:36;;;;;;;13.43;7.07;;;;;;;6.58;100.00;-18205.06;4954159;28;20537;-83
2023/03/29 07:03:08;;;;;;;11.57;6.65;;;;;;;6.62;100.00;-18206.16;4953583;28;20050;-83
2023/03/29 07:05:39;;;;;;;14.55;7.65;;;;;;;6.66;100.00;-18207.28;4955765;28;20046;-83
2023/03/29 07:10:37;;;;;;;12.60;7.40;;;;;;;6.82;100.00;-18211.69;4950654;28;20061;-82
2023/03/29 07:13:04;;;;;;;10.07;5.93;;;;;;;6.80;100.00;-18211.00;4951221;28;20498;-82
2023/03/29 07:15:31;;;;;;;12.52;7.50;;;;;;;6.82;100.00;-18211.69;4963074;28;20089;-82
2023/03/29 07:17:56;;;;;;;15.82;7.82;;;;;;;6.88;100.00;-18213.19;4954002;28;20047;-85
2023/03/29 07:20:23;;;;;;;13.57;7.50;;;;;;;6.95;100.00;-18215.25;4953987;28;20126;-85
2023/03/29 07:22:52;;;;;;;13.57;7.50;;;;;;;7.05;100.00;-18217.75;4954423;28;20047;-83
2023/03/29 07:25:20;;;;;;;10.88;7.32;;;;;;;7.14;100.00;-18220.38;4959330;28;20055;-82
2023/03/29 07:27:46;;;;;;;11.00;6.93;;;;;;;7.16;100.00;-18220.91;4951586;28;20577;-82
2023/03/29 07:30:18;;;;;;;10.75;7.22;;;;;;;7.26;100.00;-18223.41;4967289;28;20384;-82
2023/03/29 07:32:45;;;;;;;13.35;6.45;;;;;;;7.35;100.00;-18225.88;4948937;28;20519;-82
2023/03/29 07:35:11;;;;;;;13.35;7.65;;;;;;;7.37;100.00;-18226.44;4950996;28;20041;-81
2023/03/29 07:37:37;;;;;;;13.27;7.40;;;;;;;7.44;100.00;-18228.50;4951578;28;20035;-81
2023/03/29 07:40:11;;;;;;;13.00;7.00;;;;;;;7.50;100.00;-18229.88;4948979;28;20054;-82
2023/03/29 07:42:38;;;;;;;12.07;6.38;;;;;;;7.54;100.00;-18231.09;4964437;28;20039;-82
2023/03/29 07:45:06;;;;;;;10.35;6.35;;;;;;;7.52;100.00;-18230.41;4952282;28;20043;-82
2023/03/29 07:47:31;;;;;;;12.60;6.60;;;;;;;7.55;100.00;-18231.25;4950852;28;20134;-82
2023/03/29 07:49:58;;;;;;;13.48;6.65;;;;;;;7.66;100.00;-18234.41;4948521;28;20574;-82
2023/03/29 07:52:23;;;;;;;14.45;6.57;;;;;;;7.76;100.00;-18236.88;4949783;28;20090;-82
2023/03/29 07:54:49;;;;;;;9.88;6.53;;;;;;;7.90;100.00;-18240.88;4950742;28;20070;-82
2023/03/29 07:57:14;;;;;;;10.80;6.88;;;;;;;7.93;100.00;-18241.44;4956592;28;20053;-82
2023/03/29 07:59:40;;;;;;;10.32;5.80;;;;;;;7.93;100.00;-18241.56;4961124;28;20039;-82
2023/03/29 08:02:06;;;;;;;12.90;7.53;;;;;;;7.93;100.00;-18241.44;4956997;28;20161;-82
2023/03/29 08:04:31;;;;;;;13.15;6.18;;;;;;;7.93;100.00;-18241.56;4953240;28;20130;-81
2023/03/29 08:06:57;;;;;;;14.63;6.85;;;;;;;7.93;100.00;-18241.44;4952414;28;20569;-82
2023/03/29 08:09:23;;;;;;;12.20;6.68;;;;;;;8.00;100.00;-18243.38;4951284;28;20162;-82
2023/03/29 08:11:48;;;;;;;12.43;6.88;;;;;;;7.99;100.00;-18243.22;4953598;28;20043;-82
2023/03/29 08:14:13;;;;;;;13.63;7.65;;;;;;;8.05;100.00;-18244.75;4956773;28;20066;-82
2023/03/29 08:16:39;;;;;;;14.95;7.45;;;;;;;8.06;100.00;-18245.16;4950436;28;20050;-82
2023/03/29 08:19:05;;;;;;;14.35;7.68;;;;;;;8.05;100.00;-18244.88;4955042;28;20451;-82
2023/03/29 08:21:30;;;;;;;12.27;8.25;;;;;;;8.11;100.00;-18246.38;4948466;28;20077;-82
2023/03/29 08:23:56;;;;;;;11.68;6.82;;;;;;;8.08;100.00;-18245.69;4949858;28;20070;-82
2023/03/29 08:26:21;;;;;;;11.75;7.38;;;;;;;8.14;100.00;-18247.22;4952957;28;20093;-82
2023/03/29 08:28:47;;;;;;;13.02;7.30;;;;;;;8.23;100.00;-18249.69;4951828;28;20047;-82
2023/03/29 08:31:12;;;;;;;12.27;7.80;;;;;;;8.20;100.00;-18248.72;4951535;28;20047;-82
2023/03/29 08:33:38;;;;;;;13.38;7.53;;;;;;;8.22;100.00;-18249.28;4954209;28;20688;-82
2023/03/29 08:36:03;;;;;;;11.60;7.32;;;;;;;8.29;100.00;-18251.34;4951136;28;20081;-82
2023/03/29 08:38:29;;;;;;;16.30;7.78;;;;;;;8.43;100.00;-18254.94;4945848;28;20445;-83
2023/03/29 08:40:55;;;;;;;17.23;8.00;;;;;;;8.37;100.00;-18253.41;4951656;28;20047;-82
2023/03/29 08:43:38;;;;;;;13.30;7.47;;;;;;;8.33;100.00;-18252.44;4951057;28;20046;-82
2023/03/29 08:46:25;;;;;;;14.13;7.95;;;;;;;8.33;100.00;-18252.44;4946853;28;20105;-82
2023/03/29 08:49:01;;;;;;;10.65;6.55;;;;;;;8.41;100.00;-18254.53;4958008;28;20055;-82
2023/03/29 08:51:31;;;;;;;16.50;7.57;;;;;;;8.44;100.00;-18255.22;4950385;28;20113;-82
2023/03/29 08:54:12;;;;;;;14.25;9.35;;;;;;;8.44;100.00;-18255.22;4952879;28;20130;-82
2023/03/29 08:56:42;;;;;;;15.75;8.88;;;;;;;8.48;100.00;-18256.31;4954212;28;20043;-82
2023/03/29 08:59:16;;;;;;;;;;;;;;;8.52;100.00;-18257.56;4956697;28;20043;-82
2023/03/29 09:01:42;;;;;;;9.98;7.15;;;;;;;8.48;100.00;-18256.31;4948420;28;20420;-82
2023/03/29 09:04:22;;;;;;;15.23;7.88;;;;;;;8.57;100.00;-18258.78;4950913;28;20093;-82
2023/03/29 09:06:48;;;;;;;11.45;6.93;;;;;;;8.65;100.00;-18261.00;4953171;28;20049;-82
2023/03/29 09:09:18;;;;;;;12.05;7.35;;;;;;;8.72;100.00;-18262.91;4951727;28;20047;-82
2023/03/29 09:12:15;;;;;;;10.32;7.00;;;;;;;8.75;100.00;-18263.75;4952519;28;20063;-83
2023/03/29 09:14:40;;;;;;;11.90;6.97;;;;;;;8.67;100.00;-18261.53;4954420;28;20392;-82
2023/03/29 09:17:12;;;;;;;14.82;7.30;;;;;;;8.55;100.00;-18258.38;4952258;28;20105;-84
2023/03/29 09:20:07;;;;;;;14.82;7.28;;;;;;;8.60;100.00;-18259.63;4951683;28;20157;-82
2023/03/29 09:22:55;;;;;;;10.68;6.40;;;;;;;8.66;100.00;-18261.13;4950889;28;20049;-82
2023/03/29 09:25:44;;;;;;;15.27;6.95;;;;;;;8.57;100.00;-18258.94;4944539;28;20311;-83
2023/03/29 09:28:18;;;;;;;13.57;6.97;;;;;;;8.54;100.00;-18257.97;4951651;28;20043;-84
2023/03/29 09:31:14;;;;;;;11.98;6.97;;;;;;;8.57;100.00;-18258.78;4953395;28;20063;-86
2023/03/29 09:33:45;;;;;;;11.00;7.57;;;;;;;8.62;100.00;-18260.16;4951083;28;20589;-82
2023/03/29 09:36:16;;;;;;;10.32;6.50;;;;;;;8.71;100.00;-18262.50;4950404;28;20046;-82
2023/03/29 09:38:46;;;;;;;11.65;7.47;;;;;;;8.79;100.00;-18264.84;4956863;28;20047;-82
2023/03/29 09:41:27;;;;;;;11.57;7.30;;;;;;;8.91;100.00;-18268.00;4953852;28;20035;-85
2023/03/29 09:43:56;;;;;;;12.07;6.63;;;;;;;8.96;100.00;-18269.38;4966397;28;20067;-83
2023/03/29 09:46:35;;;;;;;14.10;7.63;;;;;;;9.06;100.00;-18272.00;4959259;28;20502;-82
2023/03/29 09:49:03;;;;;;;;;;;;;;;9.14;100.00;-18274.19;4955872;28;20043;-86
2023/03/29 09:51:32;;;;;;;11.10;6.57;;;;;;;9.09;100.00;-18272.81;4953639;28;20389;-84
2023/03/29 09:53:59;;;;;;;13.85;6.95;;;;;;;9.07;100.00;-18272.28;4955298;28;20563;-83
2023/03/29 09:56:25;;;;;;;15.35;8.02;;;;;;;9.16;100.00;-18274.75;4959260;28;20415;-85
2023/03/29 09:58:51;;;;;;;18.13;9.30;;;;;;;9.32;100.00;-18278.88;4971302;28;20078;-85
2023/03/29 10:01:17;;;;;;;11.07;6.07;;;;;;;9.26;100.00;-18277.50;4956935;28;20105;-84
2023/03/29 10:03:51;;;;;;;14.60;8.07;;;;;;;9.33;100.00;-18279.16;4953823;28;20047;-85
2023/03/29 10:06:18;;;;;;;10.95;7.22;;;;;;;9.33;100.00;-18279.16;4959454;28;20053;-81
2023/03/29 10:08:50;;;;;;;12.30;6.97;;;;;;;9.38;100.00;-18280.66;4955696;28;20585;-82
2023/03/29 10:11:28;;;;;;;14.35;7.05;;;;;;;9.31;100.00;-18278.59;4957801;28;20101;-84
2023/03/29 10:13:56;;;;;;;16.33;7.95;;;;;;;9.28;100.00;-18277.91;4966111;28;20051;-83
2023/03/29 10:16:24;;;;;;;14.95;8.77;;;;;;;9.35;100.00;-18279.84;4955685;28;20043;-87
2023/03/29 10:18:50;;;;;;;15.30;8.05;;;;;;;9.33;100.00;-18279.28;4951438;28;20118;-84
2023/03/29 10:21:20;;;;;;;11.77;7.72;;;;;;;9.38;100.00;-18280.53;4954527;28;20043;-84
2023/03/29 10:23:48;;;;;;;13.88;8.20;;;;;;;9.29;100.00;-18278.06;4955093;28;20495;-84
2023/03/29 10:26:28;;;;;;;14.05;8.85;;;;;;;9.31;100.00;-18278.59;4952714;28;20578;-82
2023/03/29 10:28:56;;;;;;;12.07;8.50;;;;;;;9.29;100.00;-18278.19;4965791;28;20055;-85
2023/03/29 10:31:23;;;;;;;15.73;8.23;;;;;;;9.17;100.00;-18274.88;4958287;28;20534;-82
2023/03/29 10:33:54;;;;;;;13.13;8.95;;;;;;;9.12;100.00;-18273.66;4953611;28;20113;-83
2023/03/29 10:36:21;;;;;;;11.77;9.00;;;;;;;9.09;100.00;-18272.81;4956159;28;20055;-82
2023/03/29 10:38:47;;;;;;;16.02;9.38;;;;;;;9.12;100.00;-18273.66;4955238;28;20050;-82
2023/03/29 10:41:15;;;;;;;14.23;10.05;;;;;;;9.11;100.00;-18273.38;4950783;28;20046;-82
2023/03/29 10:43:49;;;;;;;14.82;9.52;;;;;;;9.13;100.00;-18273.94;4949452;28;20058;-82
2023/03/29 10:46:22;;;;;;;15.02;8.77;;;;;;;9.14;100.00;-18274.19;4950619;28;20043;-82
2023/03/29 10:48:54;;;;;;;14.85;9.50;;;;;;;9.23;100.00;-18276.53;4953663;28;20570;-83
2023/03/29 10:51:20;;;;;;;17.58;9.90;;;;;;;9.41;100.00;-18281.34;4951617;28;20047;-83
2023/03/29 10:53:46;;;;;;;13.35;10.57;;;;;;;9.59;100.00;-18286.31;4951220;28;20450;-83
2023/03/29 10:56:29;;;;;;;13.68;9.43;;;;;;;9.65;100.00;-18287.81;4951744;28;20170;-82
2023/03/29 10:59:23;;;;;;;17.08;10.68;;;;;;;9.88;100.00;-18294.13;4963112;28;20062;-82
2023/03/29 11:02:03;;;;;;;13.10;8.05;;;;;;;10.00;100.00;-18297.16;4951370;28;20039;-82
2023/03/29 11:05:06;;;;;;;13.55;8.68;;;;;;;10.02;100.00;-18297.72;4954612;28;20043;-83
2023/03/29 11:08:10;;;;;;;13.68;8.32;;;;;;;10.08;100.00;-18299.50;4950402;28;20035;-82
2023/03/29 11:11:02;;;;;;;12.40;8.68;;;;;;;10.07;100.00;-18299.22;4950900;28;20566;-82
2023/03/29 11:13:54;;;;;;;13.77;9.52;;;;;;;10.10;100.00;-18300.06;4953513;28;20431;-82
2023/03/29 11:16:37;;;;;;;12.25;9.20;;;;;;;10.13;100.00;-18300.88;4949460;28;20101;-83
2023/03/29 11:19:18;;;;;;;14.68;10.18;;;;;;;10.29;100.00;-18305.13;4952423;28;20467;-83
2023/03/29 11:22:19;;;;;;;14.27;10.32;;;;;;;10.33;100.00;-18306.09;4955990;28;20055;-83
2023/03/29 11:24:56;;;;;;;18.88;10.15;;;;;;;10.41;100.00;-18308.31;4968984;28;20074;-82
2023/03/29 11:27:30;;;;;;;14.98;9.48;;;;;;;10.42;100.00;-18308.56;4957882;28;20054;-82
2023/03/29 11:30:07;;;;;;;12.82;8.98;;;;;;;10.34;100.00;-18306.50;4954887;28;20295;-82
2023/03/29 11:32:52;;;;;;;17.23;11.70;;;;;;;10.43;100.00;-18308.72;4953552;28;20435;-82